createdAt,value
2022-11-18T00:04:29.165Z,1.8
2022-11-18T00:09:29.468Z,1.8
2022-11-18T00:14:30.575Z,1.7
2022-11-18T00:19:28.938Z,1.7
2022-11-18T00:24:30.617Z,1.7
2022-11-18T00:29:30.563Z,1.7
2022-11-18T00:34:30.189Z,1.6
2022-11-18T00:39:30.511Z,1.6
2022-11-18T00:44:54.179Z,1.6
2022-11-18T00:49:41.658Z,1.6
2022-11-18T00:54:51.480Z,1.5
2022-11-18T00:59:31.631Z,1.5
2022-11-18T01:04:31.907Z,1.5
2022-11-18T01:09:35.051Z,1.5
2022-11-18T01:15:26.016Z,1.5
2022-11-18T01:19:32.523Z,1.5
2022-11-18T01:24:34.609Z,1.5
2022-11-18T01:29:46.367Z,1.5
2022-11-18T01:34:34.044Z,1.6
2022-11-18T01:39:35.736Z,1.6
2022-11-18T01:44:49.917Z,1.5
2022-11-18T01:49:33.862Z,1.5
2022-11-18T01:54:34.008Z,1.4
2022-11-18T01:59:40.444Z,1.4
2022-11-18T02:04:39.854Z,1.4
2022-11-18T02:09:32.267Z,1.4
2022-11-18T02:14:32.679Z,1.4
2022-11-18T02:19:52.488Z,1.4
2022-11-18T02:24:32.703Z,1.4
2022-11-18T02:29:37.418Z,1.4
2022-11-18T02:34:38.853Z,1.3
2022-11-18T02:39:38.081Z,1.3
2022-11-18T02:44:35.100Z,1.3
2022-11-18T02:49:32.589Z,1.3
2022-11-18T02:54:37.129Z,1.3
2022-11-18T02:59:32.319Z,1.3
2022-11-18T03:04:33.961Z,1.3
2022-11-18T03:09:31.564Z,1.3
2022-11-18T03:14:33.185Z,1.2
2022-11-18T03:19:32.322Z,1.2
2022-11-18T03:24:36.749Z,1.2
2022-11-18T03:29:31.169Z,1.2
2022-11-18T03:35:00.941Z,1.2
2022-11-18T03:39:37.575Z,1.2
2022-11-18T03:44:34.776Z,1.2
2022-11-18T03:52:18.771Z,1.2
2022-11-18T03:54:33.054Z,1.2
2022-11-18T03:59:33.120Z,1.2
2022-11-18T04:04:36.704Z,1.2
2022-11-18T04:10:21.075Z,1.2
2022-11-18T04:14:38.489Z,1.2
2022-11-18T04:19:31.263Z,1.2
2022-11-18T04:24:30.276Z,1.2
2022-11-18T04:29:29.890Z,1.2
2022-11-18T04:34:29.340Z,1.1
2022-11-18T04:39:29.160Z,1.1
2022-11-18T04:44:29.679Z,1.1
2022-11-18T04:49:29.227Z,1.1
2022-11-18T04:54:29.380Z,1
2022-11-18T04:59:29.613Z,1
2022-11-18T05:04:29.947Z,0.9
2022-11-18T05:09:31.832Z,0.9
2022-11-18T05:14:30.116Z,0.9
2022-11-18T05:19:29.444Z,0.9
2022-11-18T05:24:29.680Z,0.9
2022-11-18T05:29:29.115Z,0.9
2022-11-18T05:34:29.755Z,0.9
2022-11-18T05:39:29.746Z,0.9
2022-11-18T05:44:29.851Z,0.9
2022-11-18T05:49:29.043Z,0.9
2022-11-18T05:54:29.468Z,0.9
2022-11-18T05:59:29.817Z,0.9
2022-11-18T06:04:29.321Z,0.8
2022-11-18T06:09:29.714Z,0.8
2022-11-18T06:14:29.724Z,0.8
2022-11-18T06:21:00.417Z,0.8
2022-11-18T06:24:29.188Z,0.8
2022-11-18T06:29:29.990Z,0.8
2022-11-18T06:34:29.158Z,0.7
2022-11-18T06:39:29.708Z,0.7
2022-11-18T06:44:29.979Z,0.7
2022-11-18T06:49:29.551Z,0.7
2022-11-18T06:54:29.900Z,0.6
2022-11-18T06:59:29.193Z,0.6
2022-11-18T07:04:29.490Z,0.6
2022-11-18T07:09:30.102Z,0.6
2022-11-18T07:14:29.936Z,0.6
2022-11-18T07:19:34.443Z,0.6
2022-11-18T07:24:29.405Z,0.6
2022-11-18T07:29:31.144Z,0.6
2022-11-18T07:34:30.781Z,0.6
2022-11-18T07:39:30.765Z,0.6
2022-11-18T07:44:30.728Z,0.5
2022-11-18T07:49:30.090Z,0.5
2022-11-18T07:54:32.318Z,0.4
2022-11-18T07:59:33.832Z,0.4
2022-11-18T08:04:30.192Z,0.5
2022-11-18T08:09:30.683Z,0.5
2022-11-18T08:14:30.903Z,0.4
2022-11-18T08:19:30.981Z,0.4
2022-11-18T08:24:30.274Z,0.4
2022-11-18T08:29:42.660Z,0.4
2022-11-18T08:34:30.496Z,0.4
2022-11-18T08:39:30.543Z,0.4
2022-11-18T08:44:32.276Z,0.4
2022-11-18T08:49:32.778Z,0.4
2022-11-18T08:54:31.164Z,0.5
2022-11-18T08:59:31.774Z,0.5
2022-11-18T09:04:32.026Z,0.6
2022-11-18T09:09:30.079Z,0.6
2022-11-18T09:19:46.662Z,0.7
2022-11-18T09:24:30.889Z,0.8
2022-11-18T09:29:30.865Z,0.8
2022-11-18T09:34:30.213Z,0.8
2022-11-18T09:39:29.305Z,0.8
2022-11-18T09:44:29.552Z,0.9
2022-11-18T09:49:29.981Z,0.9
2022-11-18T09:54:29.699Z,1.1
2022-11-18T09:59:29.477Z,1.1
2022-11-18T10:04:30.160Z,1.2
2022-11-18T10:09:29.740Z,1.2
2022-11-18T10:14:29.753Z,1.3
2022-11-18T10:19:29.765Z,1.3
2022-11-18T10:24:29.219Z,1.3
2022-11-18T10:29:30.277Z,1.3
2022-11-18T10:34:29.505Z,1.4
2022-11-18T10:39:29.826Z,1.4
2022-11-18T10:44:30.129Z,1.5
2022-11-18T10:49:30.271Z,1.5
2022-11-18T10:54:30.580Z,1.6
2022-11-18T10:59:30.135Z,1.6
2022-11-18T11:04:30.136Z,1.6
2022-11-18T11:09:30.124Z,1.6
2022-11-18T11:14:29.694Z,1.7
2022-11-18T11:19:29.659Z,1.7
2022-11-18T11:24:29.650Z,1.7
2022-11-18T11:29:29.683Z,1.7
2022-11-18T11:34:30.034Z,1.7
2022-11-18T11:39:30.295Z,1.7
2022-11-18T11:44:29.773Z,1.8
2022-11-18T11:49:29.486Z,1.8
2022-11-18T11:54:30.332Z,1.7
2022-11-18T11:59:30.004Z,1.7
2022-11-18T12:04:29.898Z,1.7
2022-11-18T12:09:29.566Z,1.7
2022-11-18T12:14:30.180Z,1.7
2022-11-18T12:19:30.249Z,1.7
2022-11-18T12:24:30.062Z,1.8
2022-11-18T12:29:29.538Z,1.8
2022-11-18T12:34:29.240Z,1.9
2022-11-18T12:39:29.715Z,1.9
2022-11-18T12:44:29.540Z,1.9
2022-11-18T12:49:29.831Z,1.9
2022-11-18T12:54:29.916Z,1.9
2022-11-18T12:59:30.363Z,1.9
2022-11-18T13:04:29.562Z,2.5
2022-11-18T13:09:30.342Z,2.5
2022-11-18T13:14:30.311Z,3.3
2022-11-18T13:19:29.548Z,3.3
2022-11-18T13:24:29.829Z,3.4
2022-11-18T13:29:29.467Z,3.4
2022-11-18T13:34:29.975Z,3.5
2022-11-18T13:39:30.206Z,3.5
2022-11-18T13:44:29.597Z,3.5
2022-11-18T13:49:29.912Z,3.5
2022-11-18T13:54:30.150Z,3.5
2022-11-18T13:59:29.687Z,3.5
2022-11-18T14:04:29.933Z,3.4
2022-11-18T14:09:30.367Z,3.4
2022-11-18T14:14:30.058Z,3.3
2022-11-18T14:19:29.484Z,3.3
2022-11-18T14:24:29.762Z,3.4
2022-11-18T14:29:30.415Z,3.4
2022-11-18T14:34:30.065Z,3.5
2022-11-18T14:39:29.582Z,3.5
2022-11-18T14:44:30.212Z,3.4
2022-11-18T14:49:29.872Z,3.4
2022-11-18T14:54:30.452Z,3.3
2022-11-18T14:59:29.724Z,3.3
2022-11-18T15:04:29.920Z,3.1
2022-11-18T15:09:30.150Z,3.1
2022-11-18T15:14:29.656Z,2.9
2022-11-18T15:19:32.187Z,2.9
2022-11-18T15:24:30.052Z,2.7
2022-11-18T15:29:30.014Z,2.7
2022-11-18T15:34:30.097Z,2.6
2022-11-18T15:39:29.635Z,2.6
2022-11-18T15:44:30.321Z,2.4
2022-11-18T15:49:29.988Z,2.4
2022-11-18T15:54:30.160Z,2.1
2022-11-18T15:59:30.194Z,2.1
2022-11-18T16:04:29.563Z,1.9
2022-11-18T16:09:30.256Z,1.9
2022-11-18T16:14:30.134Z,1.7
2022-11-18T16:19:29.670Z,1.7
2022-11-18T16:24:30.044Z,1.6
2022-11-18T16:29:30.704Z,1.6
2022-11-18T16:34:29.456Z,1.4
2022-11-18T16:39:29.658Z,1.4
2022-11-18T16:44:30.035Z,1.3
2022-11-18T16:49:30.226Z,1.3
2022-11-18T16:54:29.487Z,1.2
2022-11-18T16:59:29.873Z,1.2
2022-11-18T17:04:30.129Z,1.2
2022-11-18T17:09:29.596Z,1.2
2022-11-18T17:14:30.260Z,1.1
2022-11-18T17:19:29.670Z,1.1
2022-11-18T17:24:30.268Z,0.9
2022-11-18T17:29:29.573Z,0.9
2022-11-18T17:34:30.089Z,0.8
2022-11-18T17:39:30.405Z,0.8
2022-11-18T17:44:30.361Z,0.6
2022-11-18T17:49:29.643Z,0.6
2022-11-18T17:54:29.980Z,0.3
2022-11-18T17:59:30.628Z,0.3
2022-11-18T18:04:30.904Z,0.2
2022-11-18T18:09:31.284Z,0.2
2022-11-18T18:14:29.971Z,0.1
2022-11-18T18:19:30.101Z,0.1
2022-11-18T18:24:30.505Z,0.1
2022-11-18T18:29:29.715Z,0.1
2022-11-18T18:34:41.461Z,0.1
2022-11-18T18:39:44.456Z,0
2022-11-18T18:44:44.653Z,0
2022-11-18T18:51:04.422Z,-0.1
2022-11-18T18:54:34.956Z,-0.1
2022-11-18T18:59:34.634Z,-0.1
2022-11-18T19:05:11.917Z,-0.2
2022-11-18T19:15:44.685Z,-0.3
2022-11-18T19:29:29.696Z,-0.4
2022-11-18T19:34:29.828Z,-0.5
2022-11-18T19:41:07.240Z,-0.6
2022-11-18T19:44:34.595Z,-0.6
2022-11-18T19:49:52.043Z,-0.7
2022-11-18T19:54:40.217Z,-0.7
2022-11-18T19:59:45.817Z,-0.8
2022-11-18T20:04:56.106Z,-0.8
2022-11-18T20:10:22.703Z,-0.9
2022-11-18T20:24:34.249Z,-1.1
2022-11-18T20:34:33.016Z,-1.2
2022-11-18T20:39:51.155Z,-1.2
2022-11-18T20:44:46.771Z,-1.3
2022-11-18T20:49:29.824Z,-1.3
2022-11-18T20:54:30.448Z,-1.3
2022-11-18T20:59:29.867Z,-1.3
2022-11-18T21:04:29.877Z,-1.4
2022-11-18T21:09:31.170Z,-1.4
2022-11-18T21:14:30.333Z,-1.5
2022-11-18T21:19:29.603Z,-1.5
2022-11-18T21:24:29.836Z,-1.6
2022-11-18T21:29:29.936Z,-1.6
2022-11-18T21:34:30.643Z,-1.7
2022-11-18T21:39:30.252Z,-1.7
2022-11-18T21:44:30.518Z,-1.7
2022-11-18T21:49:29.880Z,-1.7
2022-11-18T21:54:30.067Z,-1.8
2022-11-18T21:59:30.414Z,-1.8
2022-11-18T22:04:29.828Z,-1.9
2022-11-18T22:09:34.829Z,-1.9
2022-11-18T22:14:29.771Z,-2.1
2022-11-18T22:19:30.040Z,-2.1
2022-11-18T22:24:30.355Z,-2.2
2022-11-18T22:29:30.507Z,-2.2
2022-11-18T22:34:30.116Z,-2.3
2022-11-18T22:39:30.677Z,-2.3
2022-11-18T22:44:30.603Z,-2.4
2022-11-18T22:49:30.185Z,-2.4
2022-11-18T22:54:38.895Z,-2.5
2022-11-18T22:59:30.514Z,-2.5
2022-11-18T23:04:30.381Z,-2.6
2022-11-18T23:09:30.502Z,-2.6
2022-11-18T23:14:29.999Z,-2.7
2022-11-18T23:19:30.483Z,-2.7
2022-11-18T23:24:29.702Z,-2.8
2022-11-18T23:29:29.938Z,-2.8
2022-11-18T23:34:30.016Z,-2.8
2022-11-18T23:39:30.281Z,-2.8
2022-11-18T23:44:30.501Z,-2.9
2022-11-18T23:49:29.868Z,-2.9
2022-11-18T23:54:30.131Z,-3.1
2022-11-18T23:59:30.306Z,-3.1
